Severance, Colorado
Current Conditions -  °F | °C
As of 12:55 PM on Thursday 30 Oct 2014 (Local Time) from KFNL Reporting Station
Clear Clear  
Wind Chill: 59°   Ceiling: Unl
Heat Index: 59°   Visibility: 10mi
Dew Point: 27°   Wind: 8mph
Humidity: 29%   Direction: 180°S
Pressure: 30.36"   Gusts: NA
Location:  40.52°N, 104.85°W
Report Text: KFNL 301855Z AUTO 18007KT 10SM CLR 15/M03 A3036 RMK AO1
Loading
Personal Weather Stations






























Interactive Weather Map
Tropical Storm Tracking
New forecast layout! Learn more

10-Day Weather Forecast

Advertisements
Track Severe Weather on mobile